createdAt,value
2023-05-03T00:02:12.152Z,4.65
2023-05-03T00:04:42.422Z,4.28
2023-05-03T00:07:10.057Z,4.45
2023-05-03T00:09:37.881Z,4.45
2023-05-03T00:12:06.186Z,4.40
2023-05-03T00:14:33.879Z,4.50
2023-05-03T00:17:01.394Z,4.18
2023-05-03T00:19:33.030Z,4.20
2023-05-03T00:22:01.018Z,4.10
2023-05-03T00:24:28.454Z,4.40
2023-05-03T00:26:55.878Z,4.70
2023-05-03T00:29:23.211Z,4.47
2023-05-03T00:31:50.609Z,4.47
2023-05-03T00:34:17.958Z,4.40
2023-05-03T00:36:45.302Z,4.60
2023-05-03T00:39:12.775Z,4.60
2023-05-03T00:41:41.649Z,4.15
2023-05-03T00:44:08.999Z,4.70
2023-05-03T00:46:36.679Z,4.90
2023-05-03T00:49:04.146Z,4.75
2023-05-03T00:51:32.011Z,4.25
2023-05-03T00:53:59.564Z,4.75
2023-05-03T00:56:27.633Z,4.70
2023-05-03T00:58:56.401Z,5.10
2023-05-03T01:01:24.402Z,5.45
2023-05-03T01:03:51.912Z,5.40
2023-05-03T01:06:22.555Z,4.78
2023-05-03T01:09:04.140Z,5.10
2023-05-03T01:12:10.690Z,4.93
2023-05-03T01:14:43.997Z,5.50
2023-05-03T01:17:15.553Z,4.82
2023-05-03T01:20:06.264Z,4.80
2023-05-03T01:22:41.432Z,4.90
2023-05-03T01:25:10.446Z,4.90
2023-05-03T01:27:38.380Z,4.57
2023-05-03T01:30:08.135Z,4.82
2023-05-03T01:33:12.431Z,4.60
2023-05-03T01:35:59.391Z,4.65
2023-05-03T01:38:29.159Z,4.53
2023-05-03T01:40:59.278Z,4.60
2023-05-03T01:43:26.681Z,4.45
2023-05-03T01:45:54.114Z,4.97
2023-05-03T01:48:21.490Z,4.22
2023-05-03T01:50:48.810Z,4.30
2023-05-03T01:53:16.169Z,4.35
2023-05-03T01:55:43.498Z,4.30
2023-05-03T01:58:10.913Z,4.65
2023-05-03T02:00:38.885Z,4.45
2023-05-03T02:03:09.123Z,4.72
2023-05-03T02:05:36.876Z,4.55
2023-05-03T02:08:04.294Z,4.95
2023-05-03T02:10:31.576Z,4.43
2023-05-03T02:12:59.650Z,4.72
2023-05-03T02:15:27.219Z,5.43
2023-05-03T02:17:55.698Z,5.20
2023-05-03T02:20:23.173Z,4.90
2023-05-03T02:22:51.104Z,5.03
2023-05-03T02:25:18.458Z,5.15
2023-05-03T02:27:45.793Z,5.05
2023-05-03T02:30:13.531Z,4.90
2023-05-03T02:32:40.975Z,4.63
2023-05-03T02:35:09.448Z,5.35
2023-05-03T02:37:36.849Z,5.07
2023-05-03T02:40:06.094Z,4.80
2023-05-03T02:42:34.265Z,4.65
2023-05-03T02:45:02.388Z,4.65
2023-05-03T02:47:29.912Z,4.97
2023-05-03T02:50:01.677Z,4.30
2023-05-03T02:52:32.730Z,5.03
2023-05-03T02:55:05.397Z,4.30
2023-05-03T02:57:40.442Z,4.68
2023-05-03T03:00:21.555Z,4.53
2023-05-03T03:02:49.343Z,4.10
2023-05-03T03:08:25.576Z,4.75
2023-05-03T03:11:04.643Z,4.40
2023-05-03T03:13:49.304Z,4.50
2023-05-03T03:16:21.479Z,4.55
2023-05-03T03:18:56.811Z,4.40
2023-05-03T03:21:30.719Z,4.40
2023-05-03T03:24:03.776Z,4.80
2023-05-03T03:26:32.994Z,4.93
2023-05-03T03:29:02.395Z,4.72
2023-05-03T03:31:39.211Z,4.10
2023-05-03T03:34:27.075Z,4.63
2023-05-03T03:37:03.266Z,4.40
2023-05-03T03:39:35.483Z,4.55
2023-05-03T03:42:13.821Z,5.05
2023-05-03T03:44:44.528Z,4.55
2023-05-03T03:47:17.917Z,4.90
2023-05-03T03:49:46.942Z,5.38
2023-05-03T03:52:16.685Z,4.43
2023-05-03T03:54:53.935Z,4.65
2023-05-03T03:57:21.439Z,4.68
2023-05-03T03:59:53.328Z,4.55
2023-05-03T04:02:22.650Z,4.40
2023-05-03T04:05:03.666Z,4.90
2023-05-03T04:07:32.440Z,5.28
2023-05-03T04:10:01.449Z,5.05
2023-05-03T04:12:33.293Z,4.80
2023-05-03T04:17:57.995Z,4.70
2023-05-03T04:20:36.141Z,4.35
2023-05-03T04:23:10.914Z,4.38
2023-05-03T04:25:39.990Z,4.38
2023-05-03T04:28:10.764Z,5.00
2023-05-03T04:30:41.894Z,5.13
2023-05-03T04:36:08.716Z,5.20
2023-05-03T04:38:40.338Z,4.72
2023-05-03T04:41:08.752Z,4.70
2023-05-03T04:43:39.076Z,4.07
2023-05-03T04:46:11.087Z,4.55
2023-05-03T04:48:53.035Z,4.73
2023-05-03T04:51:32.106Z,4.55
2023-05-03T04:54:05.291Z,4.60
2023-05-03T04:56:39.842Z,4.32
2023-05-03T04:59:29.444Z,4.93
2023-05-03T05:02:03.451Z,3.90
2023-05-03T05:04:39.421Z,5.07
2023-05-03T05:07:16.610Z,4.90
2023-05-03T05:09:54.350Z,5.10
2023-05-03T05:12:24.357Z,5.25
2023-05-03T05:14:57.102Z,4.40
2023-05-03T05:17:37.386Z,5.10
2023-05-03T05:20:17.077Z,4.75
2023-05-03T05:22:50.696Z,4.82
2023-05-03T05:25:20.155Z,4.87
2023-05-03T05:28:17.653Z,5.45
2023-05-03T05:30:54.689Z,4.50
2023-05-03T05:33:26.433Z,4.80
2023-05-03T05:38:38.035Z,5.07
2023-05-03T05:41:08.688Z,4.82
2023-05-03T05:43:39.156Z,4.78
2023-05-03T05:49:00.951Z,4.90
2023-05-03T05:51:31.919Z,4.70
2023-05-03T05:54:02.477Z,5.00
2023-05-03T05:56:58.536Z,4.63
2023-05-03T05:59:33.111Z,4.70
2023-05-03T06:05:06.988Z,4.68
2023-05-03T06:07:37.657Z,4.80
2023-05-03T06:10:17.297Z,4.82
2023-05-03T06:15:50.274Z,3.60
2023-05-03T06:18:25.524Z,3.85
2023-05-03T06:23:50.747Z,3.60
2023-05-03T06:26:30.378Z,3.30
2023-05-03T06:29:01.788Z,3.20
2023-05-03T06:31:30.373Z,2.85
2023-05-03T06:34:10.486Z,3.33
2023-05-03T06:36:40.766Z,3.53
2023-05-03T06:42:24.564Z,3.00
2023-05-03T06:44:58.031Z,2.88
2023-05-03T06:47:32.151Z,2.70
2023-05-03T06:50:28.910Z,2.83
2023-05-03T06:53:45.632Z,2.90
2023-05-03T06:56:15.006Z,3.08
2023-05-03T07:01:35.445Z,3.08
2023-05-03T07:07:15.142Z,2.60
2023-05-03T07:09:53.909Z,3.03
2023-05-03T07:12:28.517Z,2.70
2023-05-03T07:14:56.034Z,2.63
2023-05-03T07:17:23.852Z,2.88
2023-05-03T07:19:52.073Z,2.78
2023-05-03T07:22:25.308Z,2.78
2023-05-03T07:24:54.891Z,2.70
2023-05-03T07:27:22.771Z,2.40
2023-05-03T07:29:54.117Z,2.55
2023-05-03T07:32:26.784Z,2.42
2023-05-03T07:35:07.053Z,2.58
2023-05-03T07:37:48.912Z,2.10
2023-05-03T07:40:25.640Z,2.20
2023-05-03T07:42:53.411Z,2.13
2023-05-03T07:45:21.207Z,2.13
2023-05-03T07:47:51.067Z,2.00
2023-05-03T07:50:18.450Z,2.30
2023-05-03T07:52:45.899Z,2.13
2023-05-03T07:55:13.312Z,2.10
2023-05-03T07:57:40.849Z,2.22
2023-05-03T08:00:11.045Z,2.20
2023-05-03T08:02:40.296Z,2.03
2023-05-03T08:05:08.511Z,2.10
2023-05-03T08:07:36.168Z,2.40
2023-05-03T08:10:03.509Z,1.90
2023-05-03T08:12:31.110Z,2.53
2023-05-03T08:14:58.410Z,2.30
2023-05-03T08:17:26.219Z,2.10
2023-05-03T08:19:58.726Z,2.05
2023-05-03T08:22:27.056Z,2.38
2023-05-03T08:24:56.580Z,2.25
2023-05-03T08:27:26.183Z,2.30
2023-05-03T08:29:53.503Z,2.22
2023-05-03T08:32:24.825Z,2.50
2023-05-03T08:34:54.302Z,2.40
2023-05-03T08:37:21.902Z,2.40
2023-05-03T08:39:49.897Z,2.45
2023-05-03T08:42:17.281Z,2.40
2023-05-03T08:44:51.403Z,2.35
2023-05-03T08:47:34.117Z,2.53
2023-05-03T08:50:16.575Z,2.70
2023-05-03T08:52:57.701Z,2.28
2023-05-03T08:55:49.892Z,2.35
2023-05-03T08:58:18.971Z,2.42
2023-05-03T09:00:46.672Z,2.35
2023-05-03T09:03:15.012Z,2.35
2023-05-03T09:05:44.437Z,2.72
2023-05-03T09:08:17.014Z,2.60
2023-05-03T09:10:44.478Z,2.90
2023-05-03T09:13:12.284Z,2.88
2023-05-03T09:15:39.794Z,2.70
2023-05-03T09:18:18.773Z,2.72
2023-05-03T09:20:52.838Z,3.28
2023-05-03T09:23:26.924Z,3.45
2023-05-03T09:25:54.340Z,2.92
2023-05-03T09:28:24.708Z,3.00
2023-05-03T09:31:09.037Z,2.90
2023-05-03T09:33:41.536Z,3.25
2023-05-03T09:36:12.102Z,3.25
2023-05-03T09:38:42.892Z,3.42
2023-05-03T09:41:31.945Z,3.03
2023-05-03T09:44:03.213Z,3.35
2023-05-03T09:46:31.399Z,3.10
2023-05-03T09:48:59.472Z,2.97
2023-05-03T09:51:32.388Z,3.33
2023-05-03T09:56:35.802Z,3.17
2023-05-03T09:59:13.948Z,3.25
2023-05-03T10:01:50.557Z,3.40
2023-05-03T10:04:22.373Z,3.38
2023-05-03T10:06:55.576Z,3.58
2023-05-03T10:09:50.137Z,3.22
2023-05-03T10:12:36.759Z,3.42
2023-05-03T10:17:58.341Z,3.30
2023-05-03T10:20:55.066Z,3.55
2023-05-03T10:23:49.199Z,3.65
2023-05-03T10:26:26.885Z,3.28
2023-05-03T10:28:55.884Z,3.67
2023-05-03T10:31:46.517Z,3.70
2023-05-03T10:34:30.968Z,3.72
2023-05-03T10:37:07.450Z,3.60
2023-05-03T10:39:34.939Z,3.65
2023-05-03T10:42:26.282Z,3.42
2023-05-03T10:45:31.437Z,3.75
2023-05-03T10:48:31.222Z,3.50
2023-05-03T10:51:43.255Z,3.60
2023-05-03T10:54:10.920Z,3.00
2023-05-03T10:56:53.550Z,3.53
2023-05-03T10:59:22.167Z,3.53
2023-05-03T11:01:53.267Z,3.50
2023-05-03T11:04:31.686Z,3.88
2023-05-03T11:07:00.601Z,3.60
2023-05-03T11:09:35.494Z,4.63
2023-05-03T11:12:19.653Z,3.67
2023-05-03T11:14:47.562Z,3.50
2023-05-03T11:17:36.441Z,3.28
2023-05-03T11:20:04.871Z,3.83
2023-05-03T11:22:36.009Z,3.80
2023-05-03T11:25:04.632Z,3.72
2023-05-03T11:27:38.541Z,3.72
2023-05-03T11:30:19.289Z,4.40
2023-05-03T11:32:46.755Z,4.25
2023-05-03T11:35:15.598Z,4.40
2023-05-03T11:37:43.572Z,4.32
2023-05-03T11:40:18.573Z,4.15
2023-05-03T11:43:13.125Z,4.13
2023-05-03T11:45:44.244Z,3.80
2023-05-03T11:48:13.783Z,4.10
2023-05-03T11:50:56.728Z,4.00
2023-05-03T11:53:27.923Z,4.68
2023-05-03T11:55:56.851Z,4.10
2023-05-03T11:58:26.893Z,4.75
2023-05-03T12:00:57.061Z,4.20
2023-05-03T12:03:32.686Z,4.13
2023-05-03T12:06:02.582Z,4.93
2023-05-03T12:08:37.594Z,4.25
2023-05-03T12:11:10.386Z,4.85
2023-05-03T12:13:41.384Z,4.23
2023-05-03T12:16:19.195Z,3.95
2023-05-03T12:19:02.948Z,4.10
2023-05-03T12:24:28.733Z,4.28
2023-05-03T12:27:02.165Z,4.10
2023-05-03T12:29:43.285Z,4.00
2023-05-03T12:32:16.488Z,4.20
2023-05-03T12:34:46.743Z,4.20
2023-05-03T12:37:17.148Z,3.83
2023-05-03T12:39:50.336Z,4.45
2023-05-03T12:47:43.953Z,4.63
2023-05-03T12:50:18.357Z,4.35
2023-05-03T12:52:52.390Z,4.40
2023-05-03T12:55:24.938Z,4.28
2023-05-03T12:58:13.048Z,4.18
2023-05-03T13:01:03.245Z,4.25
2023-05-03T13:03:34.254Z,4.55
2023-05-03T13:06:13.353Z,4.28
2023-05-03T13:08:50.420Z,3.90
2023-05-03T13:11:26.507Z,3.65
2023-05-03T13:13:57.910Z,4.00
2023-05-03T13:16:26.867Z,4.55
2023-05-03T13:18:57.802Z,4.35
2023-05-03T13:21:25.515Z,4.20
2023-05-03T13:23:52.921Z,3.80
2023-05-03T13:26:21.405Z,4.07
2023-05-03T13:28:50.118Z,4.20
2023-05-03T13:31:20.953Z,3.90
2023-05-03T13:33:49.243Z,4.32
2023-05-03T13:36:16.681Z,4.18
2023-05-03T13:38:44.200Z,4.40
2023-05-03T13:41:12.863Z,4.38
2023-05-03T13:43:42.161Z,4.32
2023-05-03T13:46:10.057Z,4.30
2023-05-03T13:48:38.814Z,4.57
2023-05-03T13:51:10.347Z,4.53
2023-05-03T13:53:47.533Z,4.20
2023-05-03T13:56:22.406Z,4.40
2023-05-03T13:58:49.899Z,4.47
2023-05-03T14:01:20.397Z,4.35
2023-05-03T14:03:52.503Z,4.50
2023-05-03T14:06:21.299Z,4.55
2023-05-03T14:08:49.907Z,4.10
2023-05-03T14:11:23.502Z,4.00
2023-05-03T14:13:57.935Z,4.18
2023-05-03T14:19:00.855Z,4.20
2023-05-03T14:21:34.413Z,4.10
2023-05-03T14:24:02.202Z,4.40
2023-05-03T14:26:30.841Z,4.35
2023-05-03T14:28:59.417Z,4.13
2023-05-03T14:31:30.275Z,4.25
2023-05-03T14:34:06.095Z,3.88
2023-05-03T14:36:36.489Z,4.35
2023-05-03T14:39:07.243Z,4.47
2023-05-03T14:41:37.449Z,4.55
2023-05-03T14:44:08.994Z,4.70
2023-05-03T14:46:42.237Z,4.30
2023-05-03T14:49:18.930Z,4.32
2023-05-03T14:51:47.373Z,4.40
2023-05-03T14:54:26.539Z,4.30
2023-05-03T14:56:57.093Z,4.03
2023-05-03T14:59:26.871Z,4.25
2023-05-03T15:01:57.807Z,4.63
2023-05-03T15:04:29.143Z,4.32
2023-05-03T15:07:04.910Z,3.95
2023-05-03T15:09:40.115Z,4.35
2023-05-03T15:12:09.404Z,4.00
2023-05-03T15:14:43.524Z,4.20
2023-05-03T15:17:14.341Z,4.32
2023-05-03T15:19:44.018Z,4.53
2023-05-03T15:22:22.317Z,4.68
2023-05-03T15:25:00.825Z,3.75
2023-05-03T15:27:34.752Z,4.82
2023-05-03T15:30:06.398Z,4.45
2023-05-03T15:32:40.638Z,4.82
2023-05-03T15:35:19.896Z,4.63
2023-05-03T15:37:56.222Z,4.70
2023-05-03T15:40:26.719Z,4.63
2023-05-03T15:42:56.667Z,4.22
2023-05-03T15:45:29.170Z,3.95
2023-05-03T15:47:57.145Z,4.78
2023-05-03T15:50:36.942Z,4.13
2023-05-03T15:53:18.684Z,4.80
2023-05-03T15:55:59.370Z,4.60
2023-05-03T15:58:35.876Z,4.10
2023-05-03T16:01:10.765Z,3.92
2023-05-03T16:03:38.780Z,4.45
2023-05-03T16:06:12.180Z,4.65
2023-05-03T16:08:40.778Z,4.45
2023-05-03T16:11:08.909Z,4.15
2023-05-03T16:13:36.807Z,4.82
2023-05-03T16:16:07.298Z,3.67
2023-05-03T16:21:24.931Z,3.78
2023-05-03T16:23:56.804Z,3.80
2023-05-03T16:29:20.568Z,4.00
2023-05-03T16:31:53.184Z,4.55
2023-05-03T16:34:37.968Z,3.85
2023-05-03T16:37:15.362Z,4.25
2023-05-03T16:39:52.258Z,4.32
2023-05-03T16:42:22.410Z,3.80
2023-05-03T16:45:07.065Z,3.95
2023-05-03T16:47:43.793Z,4.10
2023-05-03T16:50:11.481Z,3.95
2023-05-03T16:52:43.950Z,3.95
2023-05-03T16:55:14.537Z,3.95
2023-05-03T16:57:44.962Z,4.43
2023-05-03T17:00:13.191Z,4.00
2023-05-03T17:02:47.536Z,4.43
2023-05-03T17:05:15.568Z,4.10
2023-05-03T17:07:46.192Z,3.78
2023-05-03T17:10:16.636Z,4.55
2023-05-03T17:12:48.356Z,4.72
2023-05-03T17:15:19.961Z,4.57
2023-05-03T17:17:49.370Z,4.20
2023-05-03T17:20:31.631Z,4.50
2023-05-03T17:23:09.005Z,4.32
2023-05-03T17:25:36.647Z,4.35
2023-05-03T17:28:04.475Z,4.65
2023-05-03T17:30:35.095Z,4.47
2023-05-03T17:33:06.782Z,4.97
2023-05-03T17:35:39.950Z,4.68
2023-05-03T17:38:23.862Z,4.80
2023-05-03T17:40:52.189Z,4.80
2023-05-03T17:46:15.030Z,4.80
2023-05-03T17:48:55.406Z,5.03
2023-05-03T17:51:26.280Z,4.45
2023-05-03T17:54:17.697Z,4.93
2023-05-03T17:56:53.438Z,5.38
2023-05-03T17:59:24.349Z,4.88
2023-05-03T18:01:52.922Z,4.82
2023-05-03T18:07:08.115Z,4.90
2023-05-03T18:09:39.843Z,5.30
2023-05-03T18:12:09.604Z,4.63
2023-05-03T18:14:39.348Z,4.70
2023-05-03T18:17:07.908Z,4.85
2023-05-03T18:19:36.192Z,4.45
2023-05-03T18:22:08.469Z,4.40
2023-05-03T18:24:36.357Z,4.95
2023-05-03T18:27:06.426Z,4.85
2023-05-03T18:29:34.111Z,4.95
2023-05-03T18:32:08.473Z,5.30
2023-05-03T18:34:37.777Z,4.50
2023-05-03T18:37:07.093Z,5.25
2023-05-03T18:39:37.453Z,4.63
2023-05-03T18:44:47.568Z,5.18
2023-05-03T18:47:19.133Z,5.43
2023-05-03T18:49:53.217Z,5.22
2023-05-03T18:52:30.106Z,5.15
2023-05-03T18:55:04.590Z,5.38
2023-05-03T18:57:34.929Z,5.68
2023-05-03T19:00:09.771Z,5.35
2023-05-03T19:02:48.483Z,5.90
2023-05-03T19:05:17.458Z,6.22
2023-05-03T19:07:51.878Z,5.90
2023-05-03T19:10:56.184Z,6.25
2023-05-03T19:13:33.083Z,6.07
2023-05-03T19:16:04.184Z,6.45
2023-05-03T19:21:27.498Z,6.22
2023-05-03T19:23:58.660Z,6.00
2023-05-03T19:26:34.799Z,6.68
2023-05-03T19:29:11.887Z,6.30
2023-05-03T19:31:49.614Z,8.73
2023-05-03T19:34:32.285Z,8.25
2023-05-03T19:39:48.394Z,6.45
2023-05-03T19:42:18.919Z,11.15
2023-05-03T19:44:58.620Z,7.45
2023-05-03T19:55:41.252Z,7.22
2023-05-03T19:58:09.330Z,7.70
2023-05-03T20:06:53.276Z,7.63
2023-05-03T20:12:06.257Z,7.57
2023-05-03T20:14:34.598Z,7.60
2023-05-03T20:17:07.850Z,8.77
2023-05-03T20:24:47.630Z,9.43
2023-05-03T20:27:15.250Z,8.93
2023-05-03T20:29:42.862Z,8.18
2023-05-03T20:32:10.951Z,7.93
2023-05-03T20:34:56.549Z,7.13
2023-05-03T20:37:38.505Z,6.55
2023-05-03T20:40:26.765Z,6.85
2023-05-03T20:45:42.613Z,6.80
2023-05-03T20:48:14.453Z,6.40
2023-05-03T20:50:41.835Z,6.85
2023-05-03T20:53:12.068Z,6.78
2023-05-03T20:55:40.675Z,7.15
2023-05-03T20:58:10.658Z,7.30
2023-05-03T21:00:38.768Z,7.25
2023-05-03T21:03:06.485Z,7.28
2023-05-03T21:05:34.189Z,6.85
2023-05-03T21:08:01.621Z,6.78
2023-05-03T21:10:29.080Z,6.53
2023-05-03T21:15:47.188Z,6.53
2023-05-03T21:18:14.539Z,6.97
2023-05-03T21:20:41.978Z,7.22
2023-05-03T21:23:09.369Z,6.68
2023-05-03T21:25:36.868Z,6.63
2023-05-03T21:28:04.473Z,6.72
2023-05-03T21:30:35.268Z,7.03
2023-05-03T21:33:02.777Z,6.68
2023-05-03T21:35:30.600Z,6.60
2023-05-03T21:37:59.380Z,6.78
2023-05-03T21:40:27.492Z,7.13
2023-05-03T21:42:55.543Z,6.93
2023-05-03T21:45:26.280Z,6.97
2023-05-03T21:47:53.767Z,7.35
2023-05-03T21:50:23.662Z,6.97
2023-05-03T21:52:51.342Z,7.25
2023-05-03T21:55:19.275Z,6.80
2023-05-03T21:57:46.650Z,7.60
2023-05-03T22:00:18.831Z,7.63
2023-05-03T22:02:46.727Z,7.30
2023-05-03T22:05:14.405Z,6.90
2023-05-03T22:07:41.765Z,7.00
2023-05-03T22:10:09.844Z,7.50
2023-05-03T22:12:37.579Z,7.50
2023-05-03T22:15:05.794Z,7.68
2023-05-03T22:17:33.344Z,7.90
2023-05-03T22:20:01.028Z,7.85
2023-05-03T22:22:28.412Z,7.53
2023-05-03T22:24:59.153Z,8.02
2023-05-03T22:27:26.871Z,7.97
2023-05-03T22:29:57.348Z,8.00
2023-05-03T22:32:24.991Z,8.15
2023-05-03T22:34:52.748Z,8.65
2023-05-03T22:37:20.173Z,8.23
2023-05-03T22:39:47.564Z,8.32
2023-05-03T22:42:15.340Z,8.23
2023-05-03T22:44:42.923Z,8.35
2023-05-03T22:47:10.459Z,8.52
2023-05-03T22:49:38.182Z,9.05
2023-05-03T22:52:09.222Z,8.68
2023-05-03T22:54:37.796Z,8.70
2023-05-03T22:57:05.994Z,8.80
2023-05-03T22:59:33.376Z,8.85
2023-05-03T23:02:01.034Z,8.65
2023-05-03T23:04:28.435Z,9.38
2023-05-03T23:06:55.904Z,9.10
2023-05-03T23:09:23.432Z,9.13
2023-05-03T23:11:50.850Z,8.93
2023-05-03T23:14:18.302Z,9.13
2023-05-03T23:16:46.549Z,9.35
2023-05-03T23:19:14.076Z,9.52
2023-05-03T23:21:41.553Z,9.85
2023-05-03T23:24:09.064Z,9.38
2023-05-03T23:26:36.715Z,9.98
2023-05-03T23:29:04.392Z,9.85
2023-05-03T23:31:33.861Z,10.02
2023-05-03T23:34:05.491Z,9.90
2023-05-03T23:36:34.079Z,9.80
2023-05-03T23:39:03.173Z,10.05
2023-05-03T23:41:30.800Z,10.10
2023-05-03T23:44:00.747Z,9.35
2023-05-03T23:46:28.591Z,10.25
2023-05-03T23:48:56.350Z,10.88
2023-05-03T23:51:23.820Z,11.25
2023-05-03T23:53:51.493Z,11.43
2023-05-03T23:56:19.129Z,10.90
2023-05-03T23:58:46.858Z,11.27
